Time;durP1;ratioP1;P1;durP2;ratioP2;P2;SDS_P1;SDS_P2;PMS_P1;PMS_P2;Temp;Humidity;BMP_temperature;BMP_pressure;BME280_temperature;BME280_humidity;BME280_pressure;Samples;Min_cycle;Max_cycle;Signal;HPM_P1;HPM_P2
2023/11/28 00:00:30;;;;;;;3.90;3.50;;;3.80;99.90;;;;;;4988783;28;20439;-67
2023/11/28 00:02:56;;;;;;;4.70;4.30;;;3.80;99.90;;;;;;4993542;28;20504;-63
2023/11/28 00:05:21;;;;;;;4.40;4.00;;;3.70;99.90;;;;;;4988121;28;20798;-64
2023/11/28 00:07:47;;;;;;;4.43;4.03;;;3.70;99.90;;;;;;4987758;28;20438;-65
2023/11/28 00:10:13;;;;;;;4.50;4.10;;;3.60;99.90;;;;;;4988232;28;20217;-65
2023/11/28 00:12:39;;;;;;;4.73;4.33;;;3.60;99.90;;;;;;4987625;28;20228;-66
2023/11/28 00:15:05;;;;;;;4.57;4.17;;;3.70;99.90;;;;;;4988396;28;20435;-66
2023/11/28 00:17:31;;;;;;;3.83;3.53;;;3.70;99.90;;;;;;4988128;28;20186;-69
2023/11/28 00:19:57;;;;;;;5.40;4.40;;;3.70;99.90;;;;;;4990817;28;20430;-70
2023/11/28 00:22:22;;;;;;;4.13;3.77;;;3.60;99.90;;;;;;4988982;28;20430;-64
2023/11/28 00:24:48;;;;;;;4.63;4.23;;;3.60;99.90;;;;;;4987134;28;20611;-68
2023/11/28 00:27:15;;;;;;;4.20;3.80;;;3.50;99.90;;;;;;4988373;28;20190;-70
2023/11/28 00:29:40;;;;;;;5.37;4.87;;;3.50;99.90;;;;;;4988311;28;20195;-68
2023/11/28 00:32:06;;;;;;;4.33;3.93;;;3.40;99.90;;;;;;4989579;28;20675;-67
2023/11/28 00:34:32;;;;;;;4.63;4.23;;;3.40;99.90;;;;;;4986618;28;20195;-66
2023/11/28 00:36:58;;;;;;;6.03;4.10;;;3.50;99.90;;;;;;4987793;28;20423;-65
2023/11/28 00:39:23;;;;;;;4.10;3.80;;;3.40;99.90;;;;;;4986323;28;20199;-67
2023/11/28 00:41:49;;;;;;;3.63;3.33;;;3.30;99.90;;;;;;4986826;28;20183;-72
2023/11/28 00:44:15;;;;;;;4.43;4.03;;;3.30;99.90;;;;;;4987664;28;20222;-67
2023/11/28 00:46:41;;;;;;;4.03;3.73;;;3.40;99.90;;;;;;4987772;28;20184;-69
2023/11/28 00:49:14;;;;;;;4.37;3.93;;;3.40;99.90;;;;;;4989545;28;20187;-68
2023/11/28 00:51:43;;;;;;;3.90;3.60;;;3.50;99.90;;;;;;4986692;28;20464;-66
2023/11/28 00:54:10;;;;;;;4.13;3.73;;;3.50;99.90;;;;;;4987857;28;20492;-69
2023/11/28 00:56:36;;;;;;;3.73;3.33;;;3.40;99.90;;;;;;4991142;28;20489;-71
2023/11/28 00:59:01;;;;;;;3.70;3.40;;;3.40;99.90;;;;;;4993943;28;20439;-67
2023/11/28 01:01:27;;;;;;;4.60;4.20;;;3.40;99.90;;;;;;4993984;28;21332;-66
2023/11/28 01:03:53;;;;;;;4.20;3.80;;;3.40;99.90;;;;;;4986747;28;20214;-67
2023/11/28 01:06:18;;;;;;;4.00;3.70;;;3.40;99.90;;;;;;4991350;28;20188;-66
2023/11/28 01:08:44;;;;;;;3.90;3.60;;;3.40;99.90;;;;;;4993751;28;20191;-65
2023/11/28 01:11:10;;;;;;;3.63;3.33;;;3.40;99.90;;;;;;4997463;28;20188;-67
2023/11/28 01:13:36;;;;;;;4.40;4.00;;;3.40;99.90;;;;;;4993459;28;20209;-65
2023/11/28 01:16:02;;;;;;;3.90;3.60;;;3.40;99.90;;;;;;4994377;28;20241;-71
2023/11/28 01:18:28;;;;;;;3.50;3.20;;;3.30;99.90;;;;;;4996662;28;20179;-69
2023/11/28 01:20:53;;;;;;;3.73;3.37;;;3.30;99.90;;;;;;4993184;28;20424;-69
2023/11/28 01:23:19;;;;;;;3.70;3.40;;;3.40;99.90;;;;;;4999191;28;20268;-70
2023/11/28 01:25:45;;;;;;;3.57;3.27;;;3.40;99.90;;;;;;4993397;28;20207;-65
2023/11/28 01:28:11;;;;;;;3.40;3.10;;;3.30;99.90;;;;;;4997905;28;20636;-66
2023/11/28 01:30:36;;;;;;;3.90;3.60;;;3.40;99.90;;;;;;4994235;28;20635;-63
2023/11/28 01:33:02;;;;;;;3.37;3.07;;;3.30;99.90;;;;;;4991272;28;21107;-69
2023/11/28 01:35:28;;;;;;;3.47;3.20;;;3.20;99.90;;;;;;4997047;28;20204;-69
2023/11/28 01:37:54;;;;;;;3.50;3.20;;;3.20;99.90;;;;;;4993112;28;20467;-66
2023/11/28 01:40:19;;;;;;;3.30;3.03;;;3.10;99.90;;;;;;4994183;28;20199;-69
2023/11/28 01:42:48;;;;;;;3.30;3.00;;;3.10;99.90;;;;;;4985058;28;20218;-65
2023/11/28 01:45:14;;;;;;;3.53;3.23;;;3.10;99.90;;;;;;4993598;28;20175;-66
2023/11/28 01:47:40;;;;;;;3.57;3.27;;;3.20;99.90;;;;;;4993991;28;20478;-66
2023/11/28 01:50:07;;;;;;;3.67;3.37;;;3.20;99.90;;;;;;4995286;28;20270;-71
2023/11/28 01:52:33;;;;;;;3.53;3.30;;;3.20;99.90;;;;;;4992334;28;20423;-67
2023/11/28 01:55:02;;;;;;;2.97;2.77;;;3.20;99.90;;;;;;4985716;28;20497;-65
2023/11/28 01:57:28;;;;;;;3.20;3.00;;;3.20;99.90;;;;;;4991730;28;20517;-74
2023/11/28 01:59:55;;;;;;;3.23;3.03;;;3.20;99.90;;;;;;5008238;28;20431;-67
2023/11/28 02:02:21;;;;;;;3.47;3.17;;;3.20;99.90;;;;;;4997885;28;20427;-69
2023/11/28 02:04:47;;;;;;;3.43;3.13;;;3.10;99.90;;;;;;4993292;28;20478;-72
2023/11/28 02:07:14;;;;;;;3.57;3.00;;;3.10;99.90;;;;;;4997278;28;20490;-64
2023/11/28 02:09:40;;;;;;;3.30;3.10;;;3.10;99.90;;;;;;4993744;28;20445;-66
2023/11/28 02:12:06;;;;;;;3.00;2.80;;;3.10;99.90;;;;;;4994951;28;21247;-68
2023/11/28 02:14:32;;;;;;;2.83;2.63;;;3.10;99.90;;;;;;4992778;28;20423;-71
2023/11/28 02:16:58;;;;;;;3.77;3.47;;;3.10;99.90;;;;;;4992429;28;20431;-67
2023/11/28 02:19:24;;;;;;;4.00;3.70;;;3.10;99.90;;;;;;4997362;28;20181;-69
2023/11/28 02:21:49;;;;;;;3.90;3.60;;;3.10;99.90;;;;;;4993572;28;20656;-67
2023/11/28 02:24:17;;;;;;;4.10;3.80;;;3.10;99.90;;;;;;4985676;28;20227;-71
2023/11/28 02:26:43;;;;;;;3.60;3.30;;;3.00;99.90;;;;;;4993924;28;20212;-67
2023/11/28 02:29:08;;;;;;;3.93;3.63;;;3.10;99.90;;;;;;4996651;28;21274;-69
2023/11/28 02:31:34;;;;;;;3.80;3.40;;;3.00;99.90;;;;;;4994195;28;20187;-67
2023/11/28 02:34:00;;;;;;;4.07;3.67;;;3.00;99.90;;;;;;4992813;28;20236;-66
2023/11/28 02:36:27;;;;;;;4.27;3.97;;;3.10;99.90;;;;;;4997747;28;20423;-67
2023/11/28 02:38:54;;;;;;;4.20;3.90;;;3.00;99.90;;;;;;4990313;28;20187;-69
2023/11/28 02:41:19;;;;;;;3.90;3.60;;;3.00;99.90;;;;;;4988303;28;20424;-69
2023/11/28 02:43:45;;;;;;;4.80;4.40;;;3.10;99.90;;;;;;4987852;28;20470;-68
2023/11/28 02:46:11;;;;;;;4.50;4.10;;;3.00;99.90;;;;;;4987830;28;20603;-69
2023/11/28 02:48:40;;;;;;;4.83;4.43;;;3.00;99.90;;;;;;4988993;28;20591;-67
2023/11/28 02:51:10;;;;;;;4.73;4.33;;;3.00;99.90;;;;;;4987854;28;20190;-69
2023/11/28 02:53:35;;;;;;;4.40;4.00;;;2.90;99.90;;;;;;4987838;28;20486;-64
2023/11/28 02:56:01;;;;;;;4.43;4.03;;;2.90;99.90;;;;;;4986654;28;20858;-67
2023/11/28 02:58:27;;;;;;;4.40;4.00;;;2.90;99.90;;;;;;4987596;28;20184;-67
2023/11/28 03:00:52;;;;;;;4.10;3.70;;;2.80;99.90;;;;;;4988108;28;20236;-70
2023/11/28 03:03:18;;;;;;;4.60;4.20;;;2.80;99.90;;;;;;4988070;28;20477;-68
2023/11/28 03:05:44;;;;;;;4.77;4.37;;;2.80;99.90;;;;;;4988291;28;20199;-68
2023/11/28 03:08:09;;;;;;;4.77;4.37;;;2.80;99.90;;;;;;4987759;28;20194;-69
2023/11/28 03:10:35;;;;;;;5.77;5.00;;;2.80;99.90;;;;;;4988609;28;20270;-70
2023/11/28 03:13:01;;;;;;;5.40;4.90;;;2.70;99.90;;;;;;4987839;28;20194;-73
2023/11/28 03:15:26;;;;;;;6.00;5.50;;;2.70;99.90;;;;;;4988697;28;20653;-68
2023/11/28 03:17:52;;;;;;;5.30;4.90;;;2.70;99.90;;;;;;4988651;28;20188;-73
2023/11/28 03:20:17;;;;;;;6.73;5.60;;;2.80;99.90;;;;;;4987853;28;20195;-68
2023/11/28 03:22:43;;;;;;;5.50;5.00;;;2.80;99.90;;;;;;4990262;28;20183;-70
2023/11/28 03:25:11;;;;;;;6.30;5.77;;;2.80;99.90;;;;;;4988132;28;20832;-69
2023/11/28 03:27:37;;;;;;;5.73;5.30;;;2.80;99.90;;;;;;4988332;28;20541;-69
2023/11/28 03:30:04;;;;;;;6.20;5.70;;;2.80;99.90;;;;;;4988345;28;20427;-71
2023/11/28 03:32:29;;;;;;;6.63;5.93;;;2.80;99.90;;;;;;4989337;28;20529;-70
2023/11/28 03:34:55;;;;;;;6.53;5.93;;;2.80;99.90;;;;;;4987650;28;20542;-67
2023/11/28 03:37:21;;;;;;;5.40;4.87;;;2.80;99.90;;;;;;4988547;28;20233;-65
2023/11/28 03:39:46;;;;;;;5.80;5.20;;;2.80;99.90;;;;;;4988182;28;20240;-72
2023/11/28 03:42:12;;;;;;;5.47;5.00;;;2.80;99.90;;;;;;4996376;28;20190;-67
2023/11/28 03:44:38;;;;;;;5.60;5.10;;;2.80;99.90;;;;;;4993903;28;20302;-67
2023/11/28 03:47:04;;;;;;;5.97;5.47;;;2.80;99.90;;;;;;4992870;28;20203;-65
2023/11/28 03:49:31;;;;;;;5.80;5.30;;;2.80;99.90;;;;;;4993330;28;20220;-71
2023/11/28 03:51:57;;;;;;;5.73;5.23;;;2.80;99.90;;;;;;4991964;28;20418;-67
2023/11/28 03:54:22;;;;;;;5.93;5.43;;;2.80;99.90;;;;;;4991711;28;20461;-72
2023/11/28 03:56:48;;;;;;;6.10;5.50;;;2.80;99.90;;;;;;4992174;28;20473;-70
2023/11/28 03:59:14;;;;;;;7.00;6.30;;;2.80;99.90;;;;;;4992400;28;20179;-72
2023/11/28 04:01:39;;;;;;;6.67;6.07;;;2.80;99.90;;;;;;4991721;28;20290;-70
2023/11/28 04:04:05;;;;;;;7.40;6.20;;;2.70;99.90;;;;;;4990581;28;20234;-70
2023/11/28 04:06:31;;;;;;;7.23;6.53;;;2.60;99.90;;;;;;4992691;28;20192;-66
2023/11/28 04:08:57;;;;;;;9.10;6.87;;;2.60;99.90;;;;;;4991450;28;20203;-70
2023/11/28 04:11:22;;;;;;;8.60;6.80;;;2.60;99.90;;;;;;4989303;28;20602;-71
2023/11/28 04:13:48;;;;;;;8.03;7.23;;;2.70;99.90;;;;;;4988055;28;20435;-64
2023/11/28 04:16:17;;;;;;;8.13;7.23;;;2.70;99.90;;;;;;4991876;28;20180;-67
2023/11/28 04:18:45;;;;;;;7.40;6.70;;;2.80;99.90;;;;;;4991816;28;20236;-66
2023/11/28 04:21:15;;;;;;;7.47;6.77;;;2.80;99.90;;;;;;4991606;28;20449;-65
2023/11/28 04:23:45;;;;;;;7.23;6.53;;;2.80;99.90;;;;;;4991996;28;21106;-66
2023/11/28 04:26:11;;;;;;;7.20;6.60;;;2.80;99.90;;;;;;4986549;28;20427;-68
2023/11/28 04:28:36;;;;;;;7.50;6.80;;;2.80;99.90;;;;;;4992549;28;20461;-66
2023/11/28 04:31:02;;;;;;;7.70;7.00;;;2.80;99.90;;;;;;4991841;28;20180;-69
2023/11/28 04:33:29;;;;;;;7.97;7.17;;;2.80;99.90;;;;;;4992118;28;20317;-69
2023/11/28 04:35:55;;;;;;;11.00;7.43;;;2.80;99.90;;;;;;4991943;28;20237;-68
2023/11/28 04:38:21;;;;;;;8.33;7.53;;;2.80;99.90;;;;;;4991051;28;20432;-68
2023/11/28 04:40:47;;;;;;;8.50;7.70;;;2.70;99.90;;;;;;4989786;28;20544;-70
2023/11/28 04:43:13;;;;;;;7.03;6.43;;;2.80;99.90;;;;;;4985762;28;21198;-68
2023/11/28 04:45:39;;;;;;;8.00;7.20;;;2.80;99.90;;;;;;4991127;28;21305;-68
2023/11/28 04:48:05;;;;;;;8.10;7.30;;;2.70;99.90;;;;;;4991868;28;20191;-73
2023/11/28 04:50:30;;;;;;;8.17;7.37;;;2.80;99.90;;;;;;4992398;28;20303;-71
2023/11/28 04:52:56;;;;;;;8.53;7.63;;;2.70;99.90;;;;;;4991032;28;20472;-67
2023/11/28 04:55:22;;;;;;;8.63;7.63;;;2.60;99.90;;;;;;4991911;28;20180;-66
2023/11/28 04:57:47;;;;;;;9.20;7.80;;;2.60;99.90;;;;;;4992378;28;20187;-71
2023/11/28 05:00:13;;;;;;;8.10;7.37;;;2.60;99.90;;;;;;4992404;28;20738;-66
2023/11/28 05:02:39;;;;;;;9.70;7.83;;;2.60;99.90;;;;;;4992276;28;20187;-68
2023/11/28 05:05:07;;;;;;;8.40;7.60;;;2.70;99.90;;;;;;4991742;28;20996;-67
2023/11/28 05:07:33;;;;;;;7.13;6.43;;;2.60;99.90;;;;;;4991397;28;20205;-71
2023/11/28 05:09:59;;;;;;;9.27;7.00;;;2.60;99.90;;;;;;4992236;28;20426;-66
2023/11/28 05:12:25;;;;;;;7.43;6.40;;;2.70;99.90;;;;;;4992429;28;20192;-66
2023/11/28 05:14:51;;;;;;;7.93;6.97;;;2.60;99.90;;;;;;4992436;28;20501;-68
2023/11/28 05:17:17;;;;;;;7.47;6.47;;;2.70;99.90;;;;;;4992150;28;20405;-71
2023/11/28 05:19:42;;;;;;;8.10;7.20;;;2.50;99.90;;;;;;4992590;28;20470;-67
2023/11/28 05:22:08;;;;;;;12.13;9.37;;;2.50;99.90;;;;;;4993354;28;20191;-66
2023/11/28 05:24:34;;;;;;;7.63;6.90;;;2.50;99.90;;;;;;4989972;28;20216;-65
2023/11/28 05:26:59;;;;;;;8.57;7.67;;;2.50;99.90;;;;;;4988312;28;20183;-67
2023/11/28 05:29:26;;;;;;;9.40;7.67;;;2.50;99.90;;;;;;4988795;28;20177;-67
2023/11/28 05:31:51;;;;;;;9.33;7.37;;;2.50;99.90;;;;;;4991032;28;20180;-66
2023/11/28 05:34:17;;;;;;;9.00;7.77;;;2.50;99.90;;;;;;4992273;28;20450;-69
2023/11/28 05:36:43;;;;;;;8.33;7.53;;;2.40;99.90;;;;;;4992030;28;20216;-69
2023/11/28 05:39:09;;;;;;;9.50;8.03;;;2.50;99.90;;;;;;4992324;28;20488;-67
2023/11/28 05:41:35;;;;;;;7.90;7.10;;;2.50;99.90;;;;;;4987006;28;20329;-67
2023/11/28 05:44:00;;;;;;;8.70;7.50;;;2.50;99.90;;;;;;4986955;28;20445;-66
2023/11/28 05:46:26;;;;;;;8.50;7.13;;;2.50;99.90;;;;;;4980645;28;20188;-71
2023/11/28 05:48:52;;;;;;;9.27;7.60;;;2.60;99.90;;;;;;4986254;28;20207;-66
2023/11/28 05:51:17;;;;;;;9.60;8.30;;;2.50;99.90;;;;;;4985812;28;20663;-64
2023/11/28 05:53:43;;;;;;;8.77;7.73;;;2.50;99.90;;;;;;4985029;28;20183;-68
2023/11/28 05:56:11;;;;;;;8.83;7.93;;;2.50;99.90;;;;;;4986780;28;20213;-65
2023/11/28 05:58:37;;;;;;;9.10;7.47;;;2.50;99.90;;;;;;4990897;28;20187;-69
2023/11/28 06:01:03;;;;;;;9.80;7.73;;;2.50;99.90;;;;;;4990619;28;20427;-72
2023/11/28 06:03:29;;;;;;;9.90;8.03;;;2.50;99.90;;;;;;4991277;28;20571;-66
2023/11/28 06:05:55;;;;;;;9.07;7.83;;;2.50;99.90;;;;;;4991581;28;21223;-67
2023/11/28 06:08:20;;;;;;;9.13;7.20;;;2.50;99.90;;;;;;4992276;28;20187;-64
2023/11/28 06:10:46;;;;;;;10.00;7.73;;;2.50;99.90;;;;;;4984951;28;20756;-67
2023/11/28 06:13:12;;;;;;;8.67;7.40;;;2.50;99.90;;;;;;4990616;28;20712;-66
2023/11/28 06:15:37;;;;;;;8.40;6.77;;;2.60;99.90;;;;;;4989855;28;20721;-67
2023/11/28 06:18:03;;;;;;;10.10;7.33;;;2.60;99.90;;;;;;4990430;28;20700;-70
2023/11/28 06:20:28;;;;;;;7.40;6.03;;;2.60;99.90;;;;;;4994010;28;20191;-67
2023/11/28 06:22:54;;;;;;;7.63;6.07;;;2.60;99.90;;;;;;4987540;28;20662;-67
2023/11/28 06:25:20;;;;;;;7.97;6.60;;;2.60;99.90;;;;;;4993617;28;20555;-69
2023/11/28 06:27:46;;;;;;;8.83;6.33;;;2.70;99.90;;;;;;4984844;28;20191;-66
2023/11/28 06:30:12;;;;;;;7.30;6.50;;;2.70;99.90;;;;;;4985345;28;20179;-70
2023/11/28 06:32:39;;;;;;;8.40;6.40;;;2.70;99.90;;;;;;4990950;28;20665;-67
2023/11/28 06:35:07;;;;;;;7.10;6.30;;;2.60;99.90;;;;;;4992155;28;20437;-67
2023/11/28 06:37:33;;;;;;;7.00;6.17;;;2.60;99.90;;;;;;4991664;28;20489;-68
2023/11/28 06:39:59;;;;;;;7.57;5.67;;;2.60;99.90;;;;;;4991269;28;20495;-64
2023/11/28 06:42:24;;;;;;;6.80;6.07;;;2.60;99.90;;;;;;4993693;28;20620;-69
2023/11/28 06:44:50;;;;;;;8.70;6.00;;;2.70;99.90;;;;;;4990712;28;20219;-72
2023/11/28 06:47:16;;;;;;;7.10;6.40;;;2.60;99.90;;;;;;4993680;28;20200;-69
2023/11/28 06:49:45;;;;;;;8.10;5.80;;;2.50;99.90;;;;;;4993126;28;20434;-65
2023/11/28 06:52:11;;;;;;;6.13;5.40;;;2.40;99.90;;;;;;4992072;28;20183;-68
2023/11/28 06:54:37;;;;;;;5.87;4.90;;;2.30;99.90;;;;;;4991161;28;20430;-70
2023/11/28 06:57:02;;;;;;;6.10;5.40;;;2.40;99.90;;;;;;4991286;28;20216;-67
2023/11/28 06:59:28;;;;;;;7.80;5.93;;;2.40;99.90;;;;;;4994268;28;20198;-71
2023/11/28 07:01:54;;;;;;;6.17;5.57;;;2.30;99.90;;;;;;4995343;28;20179;-66
2023/11/28 07:04:20;;;;;;;5.90;5.30;;;2.40;99.90;;;;;;4993280;28;20221;-65
2023/11/28 07:06:45;;;;;;;6.07;4.57;;;2.40;99.90;;;;;;4992300;28;20250;-66
2023/11/28 07:09:11;;;;;;;7.63;4.70;;;2.40;99.90;;;;;;4991856;28;20187;-66
2023/11/28 07:11:37;;;;;;;7.43;5.00;;;2.40;99.90;;;;;;4985714;28;20191;-68
2023/11/28 07:14:02;;;;;;;4.67;4.17;;;2.30;99.90;;;;;;4999470;28;20188;-65
2023/11/28 07:16:28;;;;;;;5.40;4.13;;;2.30;99.90;;;;;;4988068;28;20711;-66
2023/11/28 07:18:54;;;;;;;6.80;4.47;;;2.30;99.90;;;;;;4989314;28;20528;-68
2023/11/28 07:21:20;;;;;;;5.70;4.50;;;2.30;99.90;;;;;;4989058;28;20430;-72
2023/11/28 07:23:45;;;;;;;4.60;3.63;;;2.40;99.90;;;;;;4990324;28;20214;-70
2023/11/28 07:26:13;;;;;;;5.20;4.20;;;2.30;99.90;;;;;;4986492;28;20230;-71
2023/11/28 07:28:40;;;;;;;5.47;3.80;;;2.30;99.90;;;;;;4982917;28;20184;-71
2023/11/28 07:31:06;;;;;;;4.53;3.80;;;2.30;99.90;;;;;;4989606;28;20435;-75
2023/11/28 07:33:31;;;;;;;6.27;4.47;;;2.30;99.90;;;;;;4994121;28;20435;-70
2023/11/28 07:35:57;;;;;;;5.60;4.50;;;2.30;99.90;;;;;;4992055;28;20473;-69
2023/11/28 07:38:24;;;;;;;6.40;3.93;;;2.20;99.90;;;;;;4995703;28;20226;-66
2023/11/28 07:40:53;;;;;;;5.77;4.00;;;2.20;99.90;;;;;;4994175;28;20182;-69
2023/11/28 07:43:19;;;;;;;4.23;3.63;;;2.30;99.90;;;;;;4994772;28;21985;-71
2023/11/28 07:45:45;;;;;;;5.30;3.77;;;2.30;99.90;;;;;;4995515;28;20452;-69
2023/11/28 07:48:12;;;;;;;4.40;3.27;;;2.30;99.90;;;;;;4998571;28;20184;-69
2023/11/28 07:50:38;;;;;;;3.80;3.10;;;2.30;99.90;;;;;;4996794;28;20441;-72
2023/11/28 07:53:06;;;;;;;6.27;3.73;;;2.30;99.90;;;;;;4995770;28;20529;-69
2023/11/28 07:55:31;;;;;;;4.77;3.80;;;2.30;99.90;;;;;;4993955;28;20462;-68
2023/11/28 07:57:57;;;;;;;4.97;4.10;;;2.20;99.90;;;;;;4995938;28;20455;-70
2023/11/28 08:00:23;;;;;;;4.00;3.60;;;2.20;99.90;;;;;;4999798;28;20631;-70
2023/11/28 08:02:48;;;;;;;3.47;3.00;;;2.20;99.90;;;;;;4994359;28;20202;-74
2023/11/28 08:05:14;;;;;;;4.63;3.40;;;2.30;99.90;;;;;;4999450;28;20265;-67
2023/11/28 08:07:40;;;;;;;5.50;3.53;;;2.30;99.90;;;;;;4997878;28;20200;-65
2023/11/28 08:10:10;;;;;;;3.60;3.20;;;2.30;99.90;;;;;;4998708;28;20179;-68
2023/11/28 08:12:35;;;;;;;4.13;3.50;;;2.30;99.90;;;;;;4997117;28;20707;-69
2023/11/28 08:15:01;;;;;;;4.93;3.57;;;2.30;99.90;;;;;;4997561;28;20425;-66
2023/11/28 08:17:27;;;;;;;4.60;3.27;;;2.30;99.90;;;;;;5000315;28;20259;-75
2023/11/28 08:19:52;;;;;;;4.50;3.30;;;2.30;99.90;;;;;;4998531;28;20184;-66
2023/11/28 08:22:19;;;;;;;5.80;3.80;;;2.40;99.90;;;;;;4998573;28;20214;-71
2023/11/28 08:24:45;;;;;;;3.93;3.50;;;2.40;99.90;;;;;;4997741;28;20215;-68
2023/11/28 08:27:11;;;;;;;3.87;3.10;;;2.50;99.90;;;;;;4999105;28;20419;-69
2023/11/28 08:29:36;;;;;;;6.47;3.70;;;2.60;99.90;;;;;;4998352;28;20183;-71
2023/11/28 08:32:02;;;;;;;4.57;3.80;;;2.70;99.90;;;;;;4997744;28;20183;-69
2023/11/28 08:34:27;;;;;;;4.00;3.30;;;2.80;99.90;;;;;;4996721;28;20983;-68
2023/11/28 08:36:53;;;;;;;5.03;3.33;;;3.00;99.90;;;;;;4996856;28;20217;-70
2023/11/28 08:39:19;;;;;;;4.77;3.60;;;3.20;99.90;;;;;;4997566;28;20897;-67
2023/11/28 08:41:45;;;;;;;3.67;3.20;;;3.30;99.90;;;;;;4998344;28;20725;-72
2023/11/28 08:44:11;;;;;;;3.40;3.10;;;3.50;99.90;;;;;;4997553;28;20520;-69
2023/11/28 08:46:37;;;;;;;5.57;3.10;;;3.70;99.90;;;;;;4997469;28;20538;-73
2023/11/28 08:49:06;;;;;;;3.37;2.80;;;3.90;99.90;;;;;;4980255;28;20188;-71
2023/11/28 08:51:32;;;;;;;4.17;3.20;;;4.10;99.90;;;;;;4997124;28;20487;-67
2023/11/28 08:53:58;;;;;;;3.33;2.93;;;4.10;99.90;;;;;;4997413;28;20443;-68
2023/11/28 08:56:24;;;;;;;7.03;3.77;;;4.20;99.90;;;;;;4998888;28;22023;-73
2023/11/28 08:58:50;;;;;;;4.07;3.67;;;4.20;99.90;;;;;;4998337;28;20649;-69
2023/11/28 09:01:16;;;;;;;4.03;3.00;;;4.20;99.90;;;;;;4999248;28;20426;-67
2023/11/28 09:03:42;;;;;;;3.50;3.10;;;4.40;99.90;;;;;;4997438;28;20466;-65
2023/11/28 09:06:08;;;;;;;3.87;3.13;;;4.40;99.90;;;;;;4999605;28;20915;-75
2023/11/28 09:08:35;;;;;;;5.30;3.17;;;4.30;99.90;;;;;;4996608;28;20221;-72
2023/11/28 09:11:02;;;;;;;2.97;2.47;;;4.30;99.90;;;;;;4998050;28;20176;-74
2023/11/28 09:13:28;;;;;;;3.50;2.63;;;4.30;99.90;;;;;;5000204;28;20438;-68
2023/11/28 09:15:55;;;;;;;4.03;2.80;;;4.20;99.90;;;;;;4996638;28;20424;-70
2023/11/28 09:18:20;;;;;;;2.60;2.40;;;4.10;99.90;;;;;;4982715;28;20427;-64
2023/11/28 09:20:47;;;;;;;4.10;3.17;;;3.90;99.90;;;;;;4998047;28;20427;-67
2023/11/28 09:23:13;;;;;;;4.67;3.23;;;3.70;99.90;;;;;;5001748;28;20228;-68
2023/11/28 09:25:39;;;;;;;3.80;2.87;;;3.70;99.90;;;;;;4995932;28;20427;-71
2023/11/28 09:28:05;;;;;;;3.47;2.80;;;3.70;99.90;;;;;;4998095;28;20923;-68
2023/11/28 09:30:31;;;;;;;3.23;2.80;;;3.60;99.90;;;;;;5000088;28;20175;-75
2023/11/28 09:32:57;;;;;;;7.23;2.87;;;3.50;99.90;;;;;;4997658;28;20208;-73
2023/11/28 09:35:23;;;;;;;3.37;2.97;;;3.40;99.90;;;;;;4999371;28;20942;-70
2023/11/28 09:37:49;;;;;;;4.50;3.23;;;3.40;99.90;;;;;;4997478;28;20236;-74
2023/11/28 09:40:15;;;;;;;4.63;3.10;;;3.50;99.90;;;;;;4998819;28;20191;-72
2023/11/28 09:42:42;;;;;;;3.33;2.83;;;3.50;99.90;;;;;;4997101;28;20792;-68
2023/11/28 09:45:08;;;;;;;3.73;2.70;;;3.70;99.90;;;;;;4999116;28;20756;-64
2023/11/28 09:47:35;;;;;;;3.27;2.97;;;3.90;99.90;;;;;;4997493;28;20489;-76
2023/11/28 09:50:05;;;;;;;3.10;2.77;;;4.10;99.90;;;;;;4997426;28;20431;-70
2023/11/28 09:52:33;;;;;;;3.27;2.70;;;4.30;99.90;;;;;;4997078;28;20449;-66
2023/11/28 09:55:00;;;;;;;3.00;2.50;;;4.30;99.90;;;;;;4997493;28;20434;-69
2023/11/28 09:57:32;;;;;;;3.20;2.53;;;4.20;99.90;;;;;;4993058;28;20430;-71
2023/11/28 09:59:58;;;;;;;3.47;2.43;;;4.00;99.90;;;;;;4991077;28;20419;-70
2023/11/28 10:02:27;;;;;;;3.13;2.50;;;4.00;99.90;;;;;;4988655;28;20526;-67
2023/11/28 10:04:53;;;;;;;3.10;2.80;;;3.80;99.90;;;;;;4989706;28;20489;-68
2023/11/28 10:07:26;;;;;;;3.03;2.80;;;3.80;99.90;;;;;;4990742;28;20427;-65
2023/11/28 10:09:54;;;;;;;3.13;2.77;;;3.80;99.90;;;;;;4990401;28;20427;-71
2023/11/28 10:12:20;;;;;;;2.67;2.47;;;3.90;99.90;;;;;;4989926;28;20435;-70
2023/11/28 10:14:46;;;;;;;4.20;2.97;;;3.90;99.90;;;;;;4989800;28;20431;-68
2023/11/28 10:17:12;;;;;;;3.27;2.30;;;3.90;99.90;;;;;;4990677;28;20505;-70
2023/11/28 10:19:38;;;;;;;3.63;2.63;;;3.90;99.90;;;;;;4989752;28;20198;-66
2023/11/28 10:22:07;;;;;;;2.87;2.47;;;3.90;99.90;;;;;;4990429;28;20435;-70
2023/11/28 10:24:33;;;;;;;3.23;2.87;;;3.90;99.90;;;;;;4992229;28;20492;-67
2023/11/28 10:27:00;;;;;;;3.50;3.20;;;3.70;99.90;;;;;;4991398;28;21312;-71
2023/11/28 10:29:29;;;;;;;3.23;2.93;;;3.60;99.90;;;;;;4989866;28;20437;-72
2023/11/28 10:31:55;;;;;;;3.57;2.90;;;3.60;99.90;;;;;;4990468;28;20434;-72
2023/11/28 10:34:21;;;;;;;3.73;3.00;;;3.60;99.90;;;;;;4988845;28;20461;-67
2023/11/28 10:36:48;;;;;;;3.33;2.70;;;3.60;99.90;;;;;;4990663;28;20928;-65
2023/11/28 10:39:18;;;;;;;4.43;2.83;;;3.50;99.90;;;;;;4988131;28;20199;-70
2023/11/28 10:41:44;;;;;;;4.30;3.00;;;3.50;99.90;;;;;;4991005;28;20431;-64
2023/11/28 10:44:10;;;;;;;4.10;3.60;;;3.50;99.90;;;;;;4989695;28;21086;-69
2023/11/28 10:46:37;;;;;;;4.13;2.80;;;3.50;99.90;;;;;;4990407;28;20421;-65
2023/11/28 10:49:03;;;;;;;4.13;3.20;;;3.50;99.90;;;;;;4990616;28;20199;-70
2023/11/28 10:51:30;;;;;;;4.20;3.10;;;3.50;99.90;;;;;;4994379;28;20482;-71
2023/11/28 10:54:17;;;;;;;3.40;2.90;;;3.50;99.90;;;;;;4991661;28;20434;-71
2023/11/28 10:56:47;;;;;;;3.03;2.60;;;3.50;99.90;;;;;;4992710;28;20451;-73
2023/11/28 10:59:20;;;;;;;4.80;3.20;;;3.50;99.90;;;;;;4994880;28;20431;-65
2023/11/28 11:01:46;;;;;;;3.93;3.53;;;3.40;99.90;;;;;;4993639;28;21204;-68
2023/11/28 11:04:13;;;;;;;4.17;3.13;;;3.30;99.90;;;;;;4994291;28;20566;-72
2023/11/28 11:06:40;;;;;;;4.70;3.73;;;3.40;99.90;;;;;;4992108;28;20797;-73
2023/11/28 11:09:07;;;;;;;3.87;3.47;;;3.50;99.90;;;;;;4994391;28;20429;-71
2023/11/28 11:11:34;;;;;;;5.00;3.17;;;3.40;99.90;;;;;;4992148;28;20956;-67
2023/11/28 11:14:10;;;;;;;3.83;3.47;;;3.40;99.90;;;;;;4993492;28;20481;-66
2023/11/28 11:16:41;;;;;;;4.00;3.57;;;3.40;99.90;;;;;;4991035;28;20434;-72
2023/11/28 11:19:09;;;;;;;3.87;3.33;;;3.40;99.90;;;;;;4992343;28;20445;-71
2023/11/28 11:21:50;;;;;;;4.00;3.23;;;3.40;99.90;;;;;;4993302;28;20481;-72
2023/11/28 11:24:18;;;;;;;3.60;3.10;;;3.40;99.90;;;;;;4995499;28;20460;-69
2023/11/28 11:26:49;;;;;;;6.07;3.57;;;3.40;99.90;;;;;;4994193;28;20857;-69
2023/11/28 11:29:19;;;;;;;4.00;3.60;;;3.40;99.90;;;;;;4994897;28;20512;-68
2023/11/28 11:31:50;;;;;;;4.40;3.60;;;3.20;99.90;;;;;;4994140;28;20431;-71
2023/11/28 11:34:44;;;;;;;4.17;3.50;;;3.20;99.90;;;;;;4993182;28;20436;-63
2023/11/28 11:37:21;;;;;;;4.37;3.60;;;3.30;99.90;;;;;;4995288;28;20471;-67
2023/11/28 11:39:52;;;;;;;4.40;3.70;;;3.40;99.90;;;;;;4992054;28;20541;-73
2023/11/28 11:42:19;;;;;;;5.57;3.90;;;3.50;99.90;;;;;;4995109;28;20446;-65
2023/11/28 11:44:54;;;;;;;3.70;3.20;;;3.70;99.90;;;;;;4991823;28;21950;-65
2023/11/28 11:47:22;;;;;;;4.07;3.33;;;4.00;99.90;;;;;;4978733;28;20568;-68
2023/11/28 11:49:49;;;;;;;4.63;3.50;;;4.20;99.90;;;;;;4993372;28;20434;-69
2023/11/28 11:52:16;;;;;;;3.90;3.40;;;4.20;99.90;;;;;;4994872;28;20467;-74
2023/11/28 11:54:43;;;;;;;4.23;3.20;;;4.20;99.90;;;;;;4992901;28;20445;-70
2023/11/28 11:57:10;;;;;;;4.70;3.20;;;4.20;99.90;;;;;;4995301;28;20442;-64
2023/11/28 11:59:36;;;;;;;3.77;3.37;;;4.00;99.90;;;;;;4993000;28;20997;-71
2023/11/28 12:02:02;;;;;;;3.60;3.30;;;3.90;99.90;;;;;;4993685;28;20423;-72
2023/11/28 12:04:28;;;;;;;4.53;3.67;;;3.80;99.90;;;;;;4994003;28;20599;-66
2023/11/28 12:07:02;;;;;;;4.20;3.37;;;3.80;99.90;;;;;;4993887;28;20434;-69
2023/11/28 12:09:28;;;;;;;3.80;3.30;;;3.80;99.90;;;;;;4993391;28;20426;-65
2023/11/28 12:11:53;;;;;;;4.87;3.70;;;3.80;99.90;;;;;;4994099;28;20419;-74
2023/11/28 12:14:19;;;;;;;4.73;4.00;;;3.70;99.90;;;;;;4993199;28;20194;-63
2023/11/28 12:16:45;;;;;;;4.07;3.27;;;3.70;99.90;;;;;;4993344;28;20430;-74
2023/11/28 12:19:11;;;;;;;4.70;3.70;;;3.60;99.90;;;;;;4994154;28;20431;-72
2023/11/28 12:21:37;;;;;;;4.20;3.63;;;3.70;99.90;;;;;;4993956;28;20179;-69
2023/11/28 12:24:03;;;;;;;4.17;3.77;;;3.70;99.90;;;;;;4993030;28;20204;-71
2023/11/28 12:26:29;;;;;;;4.60;3.90;;;3.70;99.90;;;;;;4995699;28;21283;-70
2023/11/28 12:28:54;;;;;;;4.53;3.77;;;3.60;99.90;;;;;;4994459;28;20180;-72
2023/11/28 12:31:20;;;;;;;5.30;3.53;;;3.60;99.90;;;;;;4995648;28;20190;-66
2023/11/28 12:33:46;;;;;;;4.30;3.73;;;3.70;99.90;;;;;;4992950;28;20210;-65
2023/11/28 12:36:13;;;;;;;4.10;3.40;;;3.60;99.90;;;;;;4994235;28;20514;-69
2023/11/28 12:38:39;;;;;;;4.93;3.83;;;3.70;99.90;;;;;;4993143;28;20187;-70
2023/11/28 12:41:05;;;;;;;5.10;3.87;;;3.70;99.90;;;;;;4993469;28;20435;-69
2023/11/28 12:43:34;;;;;;;4.97;4.00;;;3.70;99.90;;;;;;4994169;28;20474;-71
2023/11/28 12:46:01;;;;;;;3.67;3.23;;;3.60;99.90;;;;;;4994210;28;20544;-73
2023/11/28 12:48:27;;;;;;;6.10;4.33;;;3.60;99.90;;;;;;4994519;28;20951;-74
2023/11/28 12:50:53;;;;;;;4.87;4.33;;;3.60;99.90;;;;;;4993295;28;20432;-68
2023/11/28 12:53:20;;;;;;;5.83;4.90;;;3.50;99.90;;;;;;4994851;28;20445;-67